Hlavní strana
METAR-TAF:

METAR-TAF

Letiště :

Ohio State University Airport

Columbus, Ohio, Spojené státy americké

zeměpisná šířka: 40-04-41N, zeměpisná délka: 083-04-41W, výška: 275 m

Aktuální stav počasí

Zpráva byla vytvořena před 1 hodinou a 15 minutami, v 02:53 UTC
Jihojihozápadní vítr 6 kt
Teplota -3°C
Vlhkost vzduchu 50%
Tlak 1031 hPa
Viditelnost: 16.1 km
Jasno

METAR: KOSU 220253Z 20006KT 10SM CLR M03/M12 A3044 RMK AO2 SLP321 T10331122 58012

Čas: 23:08 (04:08 UTC)


TAF: chybějící

Stav a předpovědi počasí z více než 4 000 letišť (zprávy METAR a TAF).

Červené a žluté tečky na mapě představují dostupné meteorologické stanice.

Když kurzor umístíte na tečku, zobrazí se název stanice.

Pak kliknutím zobrazíte stav a předpověď počasí.

Chcete-li změnit mapu, kliknutím na zelené tlačítko se znaménkem +mapu přiblížíte, kliknutím na zelené tlačítko se znaménkem – mapu oddálíte a kliknutím na zelené šipky přejdete na sousední mapy.


METAR-TAF: